createdAt,value
2022-12-13T09:07:06.281Z,8.43
2022-12-13T09:09:09.015Z,7.47
2022-12-13T09:11:22.747Z,8.27
2022-12-13T09:13:43.637Z,8.43
2022-12-13T09:15:47.011Z,7.87
2022-12-13T09:17:52.454Z,7.53
2022-12-13T09:19:58.502Z,7.80
2022-12-13T09:22:02.573Z,7.60
2022-12-13T09:24:07.105Z,8.50
2022-12-13T09:26:27.135Z,7.50
2022-12-13T09:28:30.218Z,7.20
2022-12-13T09:30:33.293Z,7.00
2022-12-13T09:32:36.030Z,7.93
2022-12-13T09:34:38.808Z,7.73
2022-12-13T09:36:42.260Z,7.17
2022-12-13T09:38:45.448Z,7.23
2022-12-13T09:40:50.156Z,8.00
2022-12-13T09:43:12.351Z,7.27
2022-12-13T09:45:32.107Z,7.30
2022-12-13T09:47:36.996Z,7.40
2022-12-13T09:49:41.691Z,7.40
2022-12-13T09:52:04.213Z,6.70
2022-12-13T09:54:18.011Z,7.63
2022-12-13T09:56:23.858Z,7.90
2022-12-13T09:58:29.005Z,8.20
2022-12-13T10:00:35.929Z,7.53
2022-12-13T10:02:43.356Z,8.53
2022-12-13T10:04:46.129Z,9.10
2022-12-13T10:06:53.151Z,8.80
2022-12-13T10:08:57.304Z,9.43
2022-12-13T10:11:01.255Z,8.90
2022-12-13T10:13:11.710Z,8.97
2022-12-13T10:15:22.191Z,9.30
2022-12-13T10:17:26.243Z,9.43
2022-12-13T10:19:32.506Z,9.20
2022-12-13T10:21:37.237Z,8.80
2022-12-13T10:24:07.293Z,9.20
2022-12-13T10:26:03.821Z,8.50
2022-12-13T10:28:08.141Z,8.60
2022-12-13T10:30:12.150Z,8.77
2022-12-13T10:32:14.864Z,8.63
2022-12-13T10:34:29.720Z,8.30
2022-12-13T10:36:34.096Z,8.60
2022-12-13T10:38:38.774Z,8.63
2022-12-13T10:40:45.301Z,8.40
2022-12-13T10:42:48.086Z,8.70
2022-12-13T10:45:07.872Z,8.33
2022-12-13T10:47:17.226Z,7.90
2022-12-13T10:49:21.623Z,8.40
2022-12-13T10:51:24.492Z,7.90
2022-12-13T10:53:30.528Z,8.00
2022-12-13T10:55:34.351Z,8.27
2022-12-13T10:57:37.858Z,8.43
2022-12-13T10:59:40.822Z,8.23
2022-12-13T11:01:45.397Z,10.03
2022-12-13T11:03:57.465Z,9.60
2022-12-13T11:06:06.448Z,9.27
2022-12-13T11:08:15.669Z,9.70
2022-12-13T11:10:27.041Z,9.90
2022-12-13T11:12:31.964Z,10.33
2022-12-13T11:14:40.402Z,10.10
2022-12-13T11:16:51.083Z,12.23
2022-12-13T11:18:55.916Z,10.97
2022-12-13T11:21:01.528Z,11.63
2022-12-13T11:23:06.856Z,11.97
2022-12-13T11:25:20.716Z,11.60
2022-12-13T11:27:37.143Z,12.07
2022-12-13T11:29:53.326Z,12.90
2022-12-13T11:32:00.586Z,12.00
2022-12-13T11:34:07.268Z,12.30
2022-12-13T11:36:15.022Z,12.20
2022-12-13T11:38:26.853Z,12.33
2022-12-13T11:40:31.070Z,13.00
2022-12-13T11:42:36.088Z,12.30
2022-12-13T11:44:47.778Z,12.03
2022-12-13T11:46:53.121Z,11.90
2022-12-13T11:48:58.566Z,12.10
2022-12-13T11:51:01.367Z,12.70
2022-12-13T11:53:18.921Z,12.03
2022-12-13T11:55:24.177Z,12.50
2022-12-13T11:57:38.864Z,11.70
2022-12-13T11:59:43.579Z,12.00
2022-12-13T12:01:51.828Z,12.60
2022-12-13T12:03:58.346Z,12.93
2022-12-13T12:06:02.918Z,12.73
2022-12-13T12:08:31.688Z,12.33
2022-12-13T12:10:32.029Z,11.73
2022-12-13T12:12:35.615Z,13.03
2022-12-13T12:14:41.356Z,13.30
2022-12-13T12:16:49.811Z,13.17
2022-12-13T12:18:52.662Z,13.00
2022-12-13T12:21:06.083Z,12.57
2022-12-13T12:23:12.880Z,13.30
2022-12-13T12:25:24.110Z,12.93
2022-12-13T12:27:32.640Z,12.70
2022-12-13T12:29:53.216Z,13.13
2022-12-13T12:31:58.889Z,13.03
2022-12-13T12:34:05.607Z,13.70
2022-12-13T12:36:17.066Z,12.73
2022-12-13T12:38:30.711Z,13.20
2022-12-13T12:41:15.550Z,12.83
2022-12-13T12:43:16.132Z,12.67
2022-12-13T12:45:55.402Z,12.70
2022-12-13T12:48:45.367Z,12.20
2022-12-13T12:50:27.702Z,12.87
2022-12-13T12:52:35.897Z,13.30
2022-12-13T12:54:44.180Z,12.23
2022-12-13T12:56:49.553Z,13.20
2022-12-13T12:58:55.208Z,12.50
2022-12-13T13:01:07.303Z,13.20
2022-12-13T13:03:20.485Z,13.13
2022-12-13T13:05:27.513Z,13.07
2022-12-13T13:07:39.795Z,13.90
2022-12-13T13:09:43.081Z,14.23
2022-12-13T13:11:46.493Z,13.77
2022-12-13T13:13:53.083Z,12.80
2022-12-13T13:16:07.110Z,13.60
2022-12-13T13:18:45.816Z,13.13
2022-12-13T13:20:49.092Z,12.73
2022-12-13T13:23:17.510Z,13.33
2022-12-13T13:25:26.850Z,13.57
2022-12-13T13:27:30.690Z,13.10
2022-12-13T13:29:35.636Z,12.63
2022-12-13T13:32:01.173Z,12.50
2022-12-13T13:34:23.028Z,12.50
2022-12-13T13:36:48.283Z,13.47
2022-12-13T13:38:53.030Z,13.40
2022-12-13T13:40:56.645Z,13.20
2022-12-13T13:43:05.293Z,12.13
2022-12-13T13:45:23.758Z,12.80
2022-12-13T13:47:36.242Z,12.93
2022-12-13T13:49:39.921Z,13.60
2022-12-13T13:54:33.540Z,13.00
2022-12-13T13:56:54.699Z,13.20
2022-12-13T13:59:18.728Z,12.40
2022-12-13T14:01:34.921Z,13.20
2022-12-13T14:03:55.994Z,13.07
2022-12-13T14:06:19.797Z,12.40
2022-12-13T14:08:30.510Z,13.00
2022-12-13T14:10:43.880Z,13.23
2022-12-13T14:13:02.360Z,12.83
2022-12-13T14:15:24.931Z,12.87
2022-12-13T14:17:47.403Z,13.17
2022-12-13T14:20:16.209Z,12.30
2022-12-13T14:22:24.151Z,13.80
2022-12-13T14:24:39.747Z,13.27
2022-12-13T14:26:57.616Z,12.60
2022-12-13T14:29:02.153Z,12.70
2022-12-13T14:31:05.184Z,13.43
2022-12-13T14:33:16.479Z,12.20
2022-12-13T14:35:25.701Z,11.90
2022-12-13T14:37:31.050Z,12.30
2022-12-13T14:39:35.544Z,12.07
2022-12-13T14:41:47.991Z,12.17
2022-12-13T14:43:51.070Z,11.83
2022-12-13T14:45:57.502Z,12.10
2022-12-13T14:48:05.496Z,13.20
2022-12-13T14:50:09.675Z,11.80
2022-12-13T14:52:26.866Z,12.27
2022-12-13T14:54:33.648Z,11.97
2022-12-13T14:56:38.193Z,12.90
2022-12-13T14:58:55.397Z,12.33
2022-12-13T15:00:58.739Z,12.50
2022-12-13T15:03:03.073Z,12.57
2022-12-13T15:05:08.100Z,12.43
2022-12-13T15:07:16.060Z,11.50
2022-12-13T15:09:18.986Z,12.70
2022-12-13T15:11:21.867Z,13.07
2022-12-13T15:13:29.937Z,12.20
2022-12-13T15:15:36.377Z,11.00
2022-12-13T15:17:43.369Z,11.90
2022-12-13T15:19:49.050Z,12.47
2022-12-13T15:22:02.651Z,12.40
2022-12-13T15:24:08.048Z,11.90
2022-12-13T15:26:29.047Z,12.97
2022-12-13T15:28:34.643Z,12.13
2022-12-13T15:30:40.191Z,12.20
2022-12-13T15:33:04.621Z,11.30
2022-12-13T15:35:17.032Z,13.10
2022-12-13T15:37:30.007Z,12.10
2022-12-13T15:39:38.496Z,13.47
2022-12-13T15:41:43.923Z,12.40
2022-12-13T15:43:48.037Z,13.20
2022-12-13T15:45:54.159Z,12.40
2022-12-13T15:47:57.249Z,12.03
2022-12-13T15:50:01.042Z,13.13
2022-12-13T15:52:05.976Z,12.60
2022-12-13T15:54:21.668Z,13.10
2022-12-13T15:56:32.640Z,12.67
2022-12-13T15:58:36.511Z,13.23
2022-12-13T16:00:39.347Z,13.13
2022-12-13T16:02:50.913Z,12.50
2022-12-13T16:04:53.711Z,13.20
2022-12-13T16:06:57.072Z,12.67
2022-12-13T16:09:02.579Z,13.97
2022-12-13T16:11:05.443Z,13.70
2022-12-13T16:13:08.544Z,14.07
2022-12-13T16:15:28.814Z,13.60
2022-12-13T16:17:32.801Z,14.50
2022-12-13T16:19:36.777Z,14.10
2022-12-13T16:21:39.486Z,12.87
2022-12-13T16:23:48.161Z,13.93
2022-12-13T16:25:51.709Z,13.40
2022-12-13T16:27:54.439Z,13.43
2022-12-13T16:29:57.187Z,13.97
2022-12-13T16:32:08.384Z,14.30
2022-12-13T16:34:11.797Z,14.17
2022-12-13T16:36:15.972Z,13.73
2022-12-13T16:38:26.606Z,14.43
2022-12-13T16:40:31.721Z,14.57
2022-12-13T16:42:34.896Z,14.27
2022-12-13T16:44:38.764Z,13.30
